< < Back
Terminal Aerodrome Forecast


Current Version              Previous Versions:   1  2  3  4  5  6  7  8  9  

Terminal Aerodrome Forecast

655
FTUS44 KOHX 062300
TAFBNA
TAF
KBNA 062321Z 0700/0724 20004KT P6SM SKC
     FM071500 21009KT P6SM FEW035=

Latest METAR

180
SAUS70 KWBC 070000 RRQ
MTRBNA
METAR KBNA 062353Z 14003KT 10SM CLR 01/M09 A3047 RMK AO2 SLP324
T00061094 10028 21017 56009


USA.gov is the U.S. government's official web portal to all federal, state and local government web resources and services.